createdAt,value
2023-03-18T00:01:56.425Z,15.10
2023-03-18T00:05:13.922Z,15.88
2023-03-18T00:08:30.095Z,15.65
2023-03-18T00:11:46.952Z,14.85
2023-03-18T00:15:03.164Z,15.53
2023-03-18T00:18:19.508Z,15.65
2023-03-18T00:21:35.779Z,15.48
2023-03-18T00:24:53.367Z,15.75
2023-03-18T00:28:10.065Z,15.30
2023-03-18T00:31:26.553Z,16.08
2023-03-18T00:34:42.859Z,15.43
2023-03-18T00:37:59.266Z,14.68
2023-03-18T00:41:18.740Z,14.88
2023-03-18T00:44:35.276Z,16.38
2023-03-18T00:47:52.441Z,16.48
2023-03-18T00:51:12.319Z,15.85
2023-03-18T00:54:29.160Z,16.95
2023-03-18T00:57:46.227Z,17.15
2023-03-18T01:01:02.247Z,17.15
2023-03-18T01:04:18.398Z,16.93
2023-03-18T01:07:37.228Z,16.75
2023-03-18T01:10:53.430Z,15.33
2023-03-18T01:14:10.105Z,15.73
2023-03-18T01:17:26.420Z,15.58
2023-03-18T01:20:43.317Z,14.35
2023-03-18T01:24:01.217Z,15.93
2023-03-18T01:27:19.306Z,15.35
2023-03-18T01:30:36.256Z,15.38
2023-03-18T01:33:53.284Z,15.28
2023-03-18T01:37:10.195Z,15.50
2023-03-18T01:40:29.421Z,15.98
2023-03-18T01:43:49.400Z,14.97
2023-03-18T01:47:05.564Z,15.30
2023-03-18T01:50:25.761Z,16.43
2023-03-18T01:53:47.161Z,14.53
2023-03-18T01:57:04.366Z,14.65
2023-03-18T02:00:24.182Z,15.60
2023-03-18T02:03:41.010Z,14.88
2023-03-18T02:06:57.719Z,15.53
2023-03-18T02:10:19.253Z,15.48
2023-03-18T02:13:38.041Z,14.90
2023-03-18T02:16:59.603Z,15.95
2023-03-18T02:20:25.308Z,15.98
2023-03-18T02:23:48.290Z,16.23
2023-03-18T02:27:08.886Z,15.33
2023-03-18T02:30:32.431Z,14.83
2023-03-18T02:33:50.573Z,15.13
2023-03-18T02:37:08.635Z,15.35
2023-03-18T02:40:30.160Z,15.20
2023-03-18T02:43:46.884Z,15.93
2023-03-18T02:47:06.795Z,16.10
2023-03-18T02:50:22.604Z,15.95
2023-03-18T02:53:38.984Z,17.23
2023-03-18T02:56:55.354Z,16.70
2023-03-18T03:00:14.383Z,16.33
2023-03-18T03:03:32.003Z,17.40
2023-03-18T03:06:48.981Z,16.93
2023-03-18T03:10:06.435Z,18.13
2023-03-18T03:13:22.946Z,17.20
2023-03-18T03:16:43.165Z,17.35
2023-03-18T03:19:59.174Z,16.75
2023-03-18T03:23:18.292Z,16.78
2023-03-18T03:26:37.202Z,17.03
2023-03-18T03:29:54.906Z,15.55
2023-03-18T03:33:12.103Z,15.88
2023-03-18T03:36:29.013Z,14.53
2023-03-18T03:39:45.408Z,15.75
2023-03-18T03:43:01.915Z,16.05
2023-03-18T03:46:20.029Z,15.68
2023-03-18T03:49:36.150Z,16.23
2023-03-18T03:52:53.721Z,15.90
2023-03-18T03:56:12.116Z,15.03
2023-03-18T03:59:28.960Z,15.63
2023-03-18T04:03:05.602Z,16.00
2023-03-18T04:06:21.675Z,16.78
2023-03-18T04:09:39.772Z,15.18
2023-03-18T04:12:56.855Z,15.63
2023-03-18T04:16:15.225Z,15.13
2023-03-18T04:19:31.613Z,16.27
2023-03-18T04:22:47.842Z,15.53
2023-03-18T04:26:06.129Z,16.03
2023-03-18T04:29:23.527Z,15.38
2023-03-18T04:32:40.148Z,16.08
2023-03-18T04:35:57.258Z,15.25
2023-03-18T04:39:14.116Z,15.83
2023-03-18T04:42:30.449Z,15.35
2023-03-18T04:45:47.037Z,16.48
2023-03-18T04:49:03.753Z,17.73
2023-03-18T04:52:21.071Z,17.85
2023-03-18T04:55:37.706Z,17.20
2023-03-18T04:58:55.667Z,16.93
2023-03-18T05:02:13.665Z,17.23
2023-03-18T05:05:30.688Z,17.33
2023-03-18T05:08:47.409Z,16.73
2023-03-18T05:12:03.689Z,16.43
2023-03-18T05:15:24.269Z,15.88
2023-03-18T05:18:42.141Z,17.10
2023-03-18T05:21:58.415Z,17.33
2023-03-18T05:25:16.927Z,15.55
2023-03-18T05:28:34.847Z,17.20
2023-03-18T05:31:52.583Z,14.35
2023-03-18T05:35:09.910Z,14.68
2023-03-18T05:38:27.609Z,14.83
2023-03-18T05:41:44.493Z,14.13
2023-03-18T05:45:02.968Z,15.43
2023-03-18T05:48:19.771Z,15.18
2023-03-18T05:51:38.553Z,15.63
2023-03-18T05:54:56.438Z,15.00
2023-03-18T05:58:14.582Z,15.80
2023-03-18T06:01:31.614Z,14.95
2023-03-18T06:04:48.544Z,14.23
2023-03-18T06:08:05.175Z,13.15
2023-03-18T06:11:24.081Z,13.95
2023-03-18T06:14:40.430Z,12.90
2023-03-18T06:17:58.281Z,12.83
2023-03-18T06:21:16.175Z,13.68
2023-03-18T06:24:32.591Z,13.78
2023-03-18T06:27:48.758Z,12.85
2023-03-18T06:31:07.027Z,13.85
2023-03-18T06:34:23.418Z,13.95
2023-03-18T06:37:43.576Z,13.48
2023-03-18T06:41:02.850Z,12.35
2023-03-18T06:44:20.599Z,12.53
2023-03-18T06:47:37.907Z,13.75
2023-03-18T06:50:55.497Z,12.95
2023-03-18T06:57:27.949Z,12.15
2023-03-18T07:00:46.136Z,13.95
2023-03-18T07:04:04.031Z,12.78
2023-03-18T07:07:21.938Z,12.30
2023-03-18T07:10:40.389Z,12.18
2023-03-18T07:13:58.632Z,13.05
2023-03-18T07:17:21.196Z,12.58
2023-03-18T07:20:37.431Z,12.85
2023-03-18T07:23:55.565Z,12.50
2023-03-18T07:27:14.118Z,12.68
2023-03-18T07:30:31.294Z,11.95
2023-03-18T07:33:50.603Z,12.70
2023-03-18T07:37:07.880Z,12.25
2023-03-18T07:40:25.178Z,12.13
2023-03-18T07:43:44.394Z,11.90
2023-03-18T07:47:00.844Z,11.98
2023-03-18T07:50:21.809Z,10.93
2023-03-18T07:53:42.136Z,11.13
2023-03-18T07:56:58.931Z,10.95
2023-03-18T08:00:19.523Z,12.03
2023-03-18T08:03:37.942Z,10.63
2023-03-18T08:06:54.286Z,9.85
2023-03-18T08:10:12.702Z,10.25
2023-03-18T08:13:29.790Z,9.80
2023-03-18T08:16:46.412Z,10.43
2023-03-18T08:20:02.705Z,10.83
2023-03-18T08:23:20.165Z,10.73
2023-03-18T08:26:36.619Z,9.58
2023-03-18T08:29:53.198Z,9.05
2023-03-18T08:33:09.705Z,10.28
2023-03-18T08:36:29.598Z,9.48
2023-03-18T08:39:45.774Z,10.00
2023-03-18T08:43:02.408Z,9.45
2023-03-18T08:46:18.972Z,12.08
2023-03-18T08:49:35.632Z,9.33
2023-03-18T08:52:54.447Z,10.83
2023-03-18T08:56:15.417Z,10.18
2023-03-18T08:59:31.776Z,10.73
2023-03-18T09:02:48.626Z,9.30
2023-03-18T09:06:05.603Z,9.25
2023-03-18T09:09:26.301Z,9.28
2023-03-18T09:12:40.187Z,9.83
2023-03-18T09:15:56.493Z,9.10
2023-03-18T09:19:13.032Z,9.33
2023-03-18T09:22:29.610Z,9.25
2023-03-18T09:25:46.169Z,9.25
2023-03-18T09:29:05.253Z,8.73
2023-03-18T09:32:21.860Z,8.45
2023-03-18T09:35:38.660Z,9.10
2023-03-18T09:38:54.866Z,20.40
2023-03-18T09:42:24.548Z,9.73
2023-03-18T09:45:47.751Z,9.08
2023-03-18T09:49:32.174Z,9.00
2023-03-18T09:52:56.188Z,8.55
2023-03-18T09:56:13.386Z,9.33
2023-03-18T09:59:34.904Z,8.90
2023-03-18T10:02:55.345Z,9.30
2023-03-18T10:06:20.460Z,8.65
2023-03-18T10:09:40.319Z,9.23
2023-03-18T10:13:01.882Z,12.13
2023-03-18T10:16:25.120Z,10.20
2023-03-18T10:19:42.878Z,8.78
2023-03-18T10:23:12.300Z,8.50
2023-03-18T10:26:36.828Z,8.13
2023-03-18T10:29:59.270Z,8.48
2023-03-18T10:33:22.956Z,8.80
2023-03-18T10:36:47.528Z,8.60
2023-03-18T10:40:11.401Z,8.35
2023-03-18T10:43:31.243Z,7.80
2023-03-18T10:46:50.209Z,8.53
2023-03-18T10:53:32.503Z,7.45
2023-03-18T10:56:53.630Z,7.05
2023-03-18T11:00:12.019Z,7.48
2023-03-18T11:03:36.429Z,6.97
2023-03-18T11:06:58.538Z,7.23
2023-03-18T11:10:31.355Z,8.45
2023-03-18T11:13:53.951Z,8.90
2023-03-18T11:17:14.901Z,11.18
2023-03-18T11:20:41.946Z,7.33
2023-03-18T11:24:15.773Z,7.03
2023-03-18T11:27:46.817Z,6.50
2023-03-18T11:31:07.272Z,6.10
2023-03-18T11:34:28.645Z,6.63
2023-03-18T11:37:47.015Z,7.68
2023-03-18T11:41:13.944Z,7.05
2023-03-18T11:44:36.907Z,6.98
2023-03-18T11:47:54.553Z,7.48
2023-03-18T11:51:38.844Z,7.05
2023-03-18T11:55:31.618Z,6.38
2023-03-18T11:59:18.554Z,6.78
2023-03-18T12:02:58.665Z,7.05
2023-03-18T12:06:29.267Z,7.75
2023-03-18T12:09:50.587Z,7.25
2023-03-18T12:13:38.443Z,7.38
2023-03-18T12:17:09.859Z,15.83
2023-03-18T12:20:56.188Z,8.55
2023-03-18T12:24:40.804Z,8.18
2023-03-18T12:28:01.915Z,6.83
2023-03-18T12:31:54.361Z,7.43
2023-03-18T12:35:36.571Z,7.50
2023-03-18T12:39:47.091Z,8.43
2023-03-18T12:43:46.234Z,6.98
2023-03-18T12:47:10.943Z,7.15
2023-03-18T12:50:32.682Z,6.95
2023-03-18T12:53:55.461Z,7.00
2023-03-18T12:57:18.304Z,8.35
2023-03-18T13:00:39.150Z,6.98
2023-03-18T13:04:05.343Z,7.40
2023-03-18T13:07:27.123Z,6.68
2023-03-18T13:10:45.075Z,6.25
2023-03-18T13:14:06.515Z,5.68
2023-03-18T13:17:27.178Z,5.95
2023-03-18T13:20:46.275Z,6.20
2023-03-18T13:27:58.828Z,5.13
2023-03-18T13:31:28.610Z,5.10
2023-03-18T13:35:31.269Z,5.30
2023-03-18T13:39:34.679Z,4.90
2023-03-18T13:42:54.766Z,4.50
2023-03-18T13:46:18.300Z,6.03
2023-03-18T13:49:39.380Z,4.78
2023-03-18T13:52:58.734Z,5.63
2023-03-18T13:56:33.713Z,4.95
2023-03-18T13:59:57.162Z,5.20
2023-03-18T14:03:30.679Z,5.00
2023-03-18T14:07:02.286Z,43.20
2023-03-18T14:10:27.172Z,20.23
2023-03-18T14:13:45.848Z,5.55
2023-03-18T14:17:03.841Z,4.80
2023-03-18T14:20:36.834Z,5.05
2023-03-18T14:23:58.496Z,4.78
2023-03-18T14:27:26.959Z,5.10
2023-03-18T14:31:04.837Z,5.05
2023-03-18T14:34:43.847Z,4.88
2023-03-18T14:38:12.461Z,4.63
2023-03-18T14:41:34.172Z,4.20
2023-03-18T14:44:57.977Z,5.25
2023-03-18T14:48:22.244Z,5.10
2023-03-18T14:51:43.037Z,5.70
2023-03-18T14:55:02.481Z,3.93
2023-03-18T14:58:29.000Z,5.68
2023-03-18T15:01:51.438Z,4.90
2023-03-18T15:05:11.673Z,4.85
2023-03-18T15:08:46.830Z,4.35
2023-03-18T15:11:56.677Z,8.20
2023-03-18T15:15:25.243Z,7.13
2023-03-18T15:18:45.335Z,4.68
2023-03-18T15:22:08.753Z,4.35
2023-03-18T15:25:29.654Z,4.38
2023-03-18T15:28:45.905Z,23.33
2023-03-18T15:32:13.700Z,6.05
2023-03-18T15:41:00.637Z,4.40
2023-03-18T15:44:25.368Z,4.35
2023-03-18T15:47:43.236Z,3.98
2023-03-18T15:51:09.965Z,4.40
2023-03-18T15:54:31.585Z,4.00
2023-03-18T15:57:50.143Z,4.85
2023-03-18T16:01:07.449Z,4.25
2023-03-18T16:04:26.860Z,4.18
2023-03-18T16:07:42.948Z,4.10
2023-03-18T16:11:05.075Z,4.75
2023-03-18T16:14:26.737Z,22.85
2023-03-18T16:17:46.695Z,6.85
2023-03-18T16:21:03.289Z,4.33
2023-03-18T16:24:19.378Z,4.88
2023-03-18T16:27:42.749Z,4.03
2023-03-18T16:31:01.746Z,4.10
2023-03-18T16:34:24.015Z,4.43
2023-03-18T16:37:40.217Z,4.15
2023-03-18T16:40:56.848Z,4.53
2023-03-18T16:44:20.241Z,5.10
2023-03-18T16:47:37.739Z,5.28
2023-03-18T16:50:57.478Z,5.45
2023-03-18T16:54:27.196Z,5.48
2023-03-18T16:57:44.300Z,5.85
2023-03-18T17:01:00.811Z,6.28
2023-03-18T17:04:30.307Z,6.78
2023-03-18T17:07:46.551Z,6.75
2023-03-18T17:11:06.179Z,7.60
2023-03-18T17:14:35.773Z,7.70
2023-03-18T17:17:53.828Z,7.45
2023-03-18T17:21:10.274Z,8.40
2023-03-18T17:24:26.672Z,8.28
2023-03-18T17:27:48.341Z,8.95
2023-03-18T17:31:05.052Z,8.30
2023-03-18T17:34:23.435Z,8.35
2023-03-18T17:37:39.505Z,8.30
2023-03-18T17:40:56.522Z,8.48
2023-03-18T17:44:31.446Z,8.00
2023-03-18T17:47:48.357Z,7.85
2023-03-18T17:51:07.986Z,8.83
2023-03-18T17:54:27.871Z,7.55
2023-03-18T17:57:44.610Z,9.03
2023-03-18T18:01:02.135Z,8.38
2023-03-18T18:04:25.548Z,8.23
2023-03-18T18:07:41.667Z,8.28
2023-03-18T18:11:00.120Z,8.38
2023-03-18T18:14:25.776Z,8.60
2023-03-18T18:17:42.234Z,8.93
2023-03-18T18:21:04.950Z,8.30
2023-03-18T18:24:28.429Z,9.25
2023-03-18T18:27:45.059Z,13.68
2023-03-18T18:31:03.713Z,11.55
2023-03-18T18:34:22.061Z,10.43
2023-03-18T18:37:40.927Z,11.88
2023-03-18T18:40:58.306Z,12.25
2023-03-18T18:44:19.874Z,12.68
2023-03-18T18:50:51.046Z,14.70
2023-03-18T18:54:09.195Z,14.95
2023-03-18T18:57:34.082Z,14.43
2023-03-18T19:00:51.262Z,15.65
2023-03-18T19:04:08.605Z,14.93
2023-03-18T19:07:27.282Z,13.40
2023-03-18T19:10:46.558Z,12.80
2023-03-18T19:14:11.259Z,15.25
2023-03-18T19:17:30.523Z,13.33
2023-03-18T19:20:49.038Z,15.03
2023-03-18T19:24:09.076Z,15.15
2023-03-18T19:27:32.354Z,15.78
2023-03-18T19:30:48.619Z,14.73
2023-03-18T19:34:08.221Z,13.45
2023-03-18T19:37:30.104Z,14.20
2023-03-18T19:40:49.562Z,13.95
2023-03-18T19:44:17.705Z,12.85
2023-03-18T19:47:36.803Z,12.78
2023-03-18T19:50:55.507Z,13.35
2023-03-18T19:54:36.331Z,12.95
2023-03-18T19:57:55.036Z,13.68
2023-03-18T20:01:11.368Z,12.20
2023-03-18T20:04:31.501Z,11.43
2023-03-18T20:07:48.155Z,11.85
2023-03-18T20:11:04.646Z,10.88
2023-03-18T20:14:35.750Z,11.50
2023-03-18T20:17:55.406Z,12.43
2023-03-18T20:21:14.451Z,13.23
2023-03-18T20:24:36.024Z,12.88
2023-03-18T20:27:54.328Z,12.98
2023-03-18T20:31:12.677Z,13.25
2023-03-18T20:34:29.783Z,13.30
2023-03-18T20:37:47.218Z,12.80
2023-03-18T20:41:06.309Z,13.90
2023-03-18T20:44:22.496Z,13.15
2023-03-18T20:47:39.305Z,14.43
2023-03-18T20:50:56.778Z,13.78
2023-03-18T20:54:23.958Z,14.90
2023-03-18T20:57:48.958Z,16.28
2023-03-18T21:01:06.845Z,18.33
2023-03-18T21:04:23.933Z,17.20
2023-03-18T21:07:41.425Z,19.28
2023-03-18T21:11:02.094Z,18.68
2023-03-18T21:14:23.510Z,16.95
2023-03-18T21:17:42.044Z,15.78
2023-03-18T21:20:58.670Z,17.05
2023-03-18T21:24:32.441Z,19.00
2023-03-18T21:27:48.971Z,20.75
2023-03-18T21:31:06.819Z,18.60
2023-03-18T21:34:28.586Z,19.10
2023-03-18T21:37:45.904Z,18.13
2023-03-18T21:41:05.478Z,18.08
2023-03-18T21:44:21.731Z,20.78
2023-03-18T21:47:37.933Z,19.30
2023-03-18T21:50:57.649Z,20.68
2023-03-18T21:54:24.915Z,25.28
2023-03-18T21:57:43.827Z,26.00
2023-03-18T22:01:06.064Z,25.63
2023-03-18T22:04:23.115Z,26.90
2023-03-18T22:07:40.133Z,26.40
2023-03-18T22:10:58.746Z,27.85
2023-03-18T22:14:16.810Z,29.83
2023-03-18T22:17:38.479Z,29.45
2023-03-18T22:20:56.157Z,28.95
2023-03-18T22:24:14.910Z,28.73
2023-03-18T22:27:33.970Z,30.83
2023-03-18T22:30:52.829Z,30.30
2023-03-18T22:34:09.371Z,29.33
2023-03-18T22:37:29.764Z,29.65
2023-03-18T22:40:47.697Z,29.13
2023-03-18T22:44:07.134Z,29.40
2023-03-18T22:47:26.675Z,29.10
2023-03-18T22:54:00.423Z,27.78
2023-03-18T22:57:23.666Z,29.23
2023-03-18T23:00:45.575Z,29.80
2023-03-18T23:04:01.683Z,30.70
2023-03-18T23:07:33.130Z,30.48
2023-03-18T23:10:50.571Z,31.23
2023-03-18T23:14:07.355Z,30.55
2023-03-18T23:17:27.488Z,30.48
2023-03-18T23:20:44.861Z,32.65
2023-03-18T23:24:01.578Z,32.33
2023-03-18T23:27:18.257Z,32.95
2023-03-18T23:30:34.640Z,32.68
2023-03-18T23:33:51.359Z,33.03
2023-03-18T23:37:07.936Z,31.63
2023-03-18T23:40:24.736Z,32.28
2023-03-18T23:43:41.132Z,30.38
2023-03-18T23:46:58.218Z,33.18
2023-03-18T23:50:17.824Z,34.65
2023-03-18T23:53:34.455Z,34.20
2023-03-18T23:56:51.491Z,35.33
